Time;durP1;ratioP1;P1;durP2;ratioP2;P2;SDS_P1;SDS_P2;PMS_P1;PMS_P2;Temp;Humidity;BMP_temperature;BMP_pressure;BME280_temperature;BME280_humidity;BME280_pressure;Samples;Min_cycle;Max_cycle;Signal;HPM_P1;HPM_P2
2022/03/19 00:01:39;;;;;;;16.38;3.80;;;5.60;99.90;;;;;;4957483;28;20043;-86
2022/03/19 00:04:05;;;;;;;13.93;3.28;;;5.60;99.90;;;;;;4945599;28;20038;-85
2022/03/19 00:06:32;;;;;;;8.77;3.10;;;5.90;99.90;;;;;;4950920;28;20039;-85
2022/03/19 00:08:58;;;;;;;14.18;3.65;;;6.00;99.90;;;;;;4970212;28;20050;-86
2022/03/19 00:11:24;;;;;;;10.05;3.22;;;5.40;99.90;;;;;;4935975;28;20170;-85
2022/03/19 00:13:50;;;;;;;12.77;3.20;;;5.40;99.90;;;;;;4949360;28;20815;-86
2022/03/19 00:16:15;;;;;;;17.50;3.42;;;5.40;99.90;;;;;;4953687;28;20042;-86
2022/03/19 00:18:41;;;;;;;22.25;4.28;;;5.30;99.90;;;;;;4951706;28;20046;-87
2022/03/19 00:21:07;;;;;;;22.30;3.95;;;5.40;99.90;;;;;;4951567;28;20493;-85
2022/03/19 00:23:33;;;;;;;15.35;2.97;;;5.30;99.90;;;;;;4944299;28;20046;-84
2022/03/19 00:25:59;;;;;;;14.82;3.10;;;5.90;99.90;;;;;;4955122;28;20092;-84
2022/03/19 00:28:25;;;;;;;13.57;2.83;;;5.60;99.90;;;;;;4966295;28;20038;-85
2022/03/19 00:30:50;;;;;;;16.73;2.72;;;6.00;99.90;;;;;;4954178;28;20530;-85
2022/03/19 00:33:16;;;;;;;14.73;3.10;;;5.80;99.90;;;;;;4963306;28;20030;-84
2022/03/19 00:35:42;;;;;;;14.68;4.40;;;5.20;99.90;;;;;;4924038;28;20045;-85
2022/03/19 00:38:08;;;;;;;8.95;2.65;;;5.10;99.90;;;;;;4939106;28;20074;-84
2022/03/19 00:40:35;;;;;;;11.50;3.53;;;5.10;99.90;;;;;;4959904;28;20034;-84
2022/03/19 00:43:01;;;;;;;17.70;3.15;;;5.10;99.90;;;;;;4971796;28;20047;-85
2022/03/19 00:45:28;;;;;;;13.02;2.42;;;5.20;99.90;;;;;;4943897;28;20049;-85
2022/03/19 00:47:54;;;;;;;11.93;2.53;;;5.10;99.90;;;;;;4916376;28;20053;-85
2022/03/19 00:50:20;;;;;;;14.13;3.08;;;5.10;99.90;;;;;;4933059;28;20121;-85
2022/03/19 00:52:46;;;;;;;13.82;2.83;;;5.60;99.90;;;;;;4935226;28;20126;-86
2022/03/19 00:55:12;;;;;;;12.20;2.80;;;5.40;99.90;;;;;;4944371;28;20054;-86
2022/03/19 00:57:43;;;;;;;16.27;2.90;;;5.10;99.90;;;;;;4932448;28;20052;-85
2022/03/19 01:00:11;;;;;;;11.85;2.50;;;5.10;99.90;;;;;;4964083;28;20156;-86
2022/03/19 01:02:41;;;;;;;12.65;2.55;;;5.00;99.90;;;;;;4948331;28;20103;-86
2022/03/19 01:05:08;;;;;;;14.23;2.40;;;5.00;99.90;;;;;;4946805;28;20093;-84
2022/03/19 01:07:41;;;;;;;13.23;2.17;;;5.00;99.90;;;;;;4955694;28;20085;-85
2022/03/19 01:10:08;;;;;;;14.88;2.65;;;5.10;99.90;;;;;;4944411;28;20093;-86
2022/03/19 01:12:33;;;;;;;16.40;2.97;;;5.00;99.90;;;;;;4945236;28;20045;-85
2022/03/19 01:14:59;;;;;;;13.32;2.80;;;5.60;99.90;;;;;;4930289;28;20042;-84
2022/03/19 01:17:27;;;;;;;14.13;4.55;;;5.00;99.90;;;;;;4956058;28;20134;-87
2022/03/19 01:19:52;;;;;;;18.23;4.07;;;5.00;99.90;;;;;;4939791;28;20493;-85
2022/03/19 01:22:19;;;;;;;9.68;2.40;;;5.00;99.90;;;;;;4956374;28;20057;-86
2022/03/19 01:24:45;;;;;;;13.38;2.30;;;5.70;99.90;;;;;;4959820;28;20046;-84
2022/03/19 01:27:11;;;;;;;11.77;2.67;;;4.90;99.90;;;;;;4931569;28;20066;-85
2022/03/19 01:29:37;;;;;;;13.65;2.30;;;4.90;99.90;;;;;;4956577;28;20042;-86
2022/03/19 01:32:03;;;;;;;17.42;3.67;;;5.30;99.90;;;;;;4947281;28;20101;-87
2022/03/19 01:34:29;;;;;;;18.33;2.47;;;4.90;99.90;;;;;;4951999;28;20066;-86
2022/03/19 01:36:55;;;;;;;16.15;2.97;;;5.50;99.90;;;;;;4922009;28;20055;-85
2022/03/19 01:39:20;;;;;;;11.80;2.30;;;4.90;99.90;;;;;;4945942;28;20097;-86
2022/03/19 01:41:46;;;;;;;17.13;3.25;;;5.70;99.90;;;;;;4968993;28;20054;-85
2022/03/19 01:44:19;;;;;;;20.05;3.75;;;5.30;99.90;;;;;;4968896;28;20117;-83
2022/03/19 01:46:59;;;;;;;8.25;2.00;;;4.90;99.90;;;;;;4950839;28;20049;-85
2022/03/19 01:49:26;;;;;;;16.55;3.50;;;4.90;99.90;;;;;;4972842;28;20169;-83
2022/03/19 01:51:52;;;;;;;14.35;2.67;;;5.40;99.90;;;;;;4950793;28;20035;-84
2022/03/19 01:54:24;;;;;;;16.50;3.40;;;5.30;99.90;;;;;;4974774;28;20131;-85
2022/03/19 01:56:52;;;;;;;13.02;2.65;;;4.90;99.90;;;;;;4954338;28;20473;-85
2022/03/19 01:59:21;;;;;;;9.93;3.17;;;4.80;99.90;;;;;;4956520;28;20567;-82
2022/03/19 02:01:48;;;;;;;15.82;3.03;;;4.90;99.90;;;;;;4957076;28;20121;-84
2022/03/19 02:04:14;;;;;;;23.13;3.20;;;5.50;99.90;;;;;;4952064;28;20125;-84
2022/03/19 02:06:40;;;;;;;18.88;4.65;;;5.40;99.90;;;;;;4942162;28;20054;-85
2022/03/19 02:09:06;;;;;;;10.45;2.38;;;4.80;99.90;;;;;;4950396;28;20051;-86
2022/03/19 02:11:35;;;;;;;14.20;3.00;;;4.80;99.90;;;;;;4941281;28;20101;-85
2022/03/19 02:14:00;;;;;;;12.80;2.75;;;5.00;99.90;;;;;;4955577;28;20043;-85
2022/03/19 02:16:26;;;;;;;15.10;2.95;;;4.90;99.90;;;;;;4949391;28;20041;-84
2022/03/19 02:18:52;;;;;;;12.23;2.88;;;4.70;99.90;;;;;;4957615;28;20117;-83
2022/03/19 02:21:18;;;;;;;14.40;2.42;;;5.00;99.90;;;;;;4955540;28;20334;-85
2022/03/19 02:26:43;;;;;;;15.90;2.95;;;4.70;99.90;;;;;;4958411;28;20043;-84
2022/03/19 02:29:08;;;;;;;12.05;3.13;;;4.60;99.90;;;;;;4971532;28;20057;-85
2022/03/19 02:31:35;;;;;;;18.50;4.18;;;4.60;99.90;;;;;;4946069;28;20038;-85
2022/03/19 02:34:01;;;;;;;15.30;3.38;;;4.60;99.90;;;;;;4943788;28;20074;-83
2022/03/19 02:36:26;;;;;;;12.77;3.05;;;5.00;99.90;;;;;;4927297;28;20144;-85
2022/03/19 02:38:52;;;;;;;16.27;2.78;;;4.80;99.90;;;;;;4957432;28;20039;-85
2022/03/19 02:41:18;;;;;;;14.73;2.75;;;4.90;99.90;;;;;;4935064;28;20039;-86
2022/03/19 02:43:48;;;;;;;12.10;2.58;;;4.60;99.90;;;;;;4937257;28;20081;-85
2022/03/19 02:46:14;;;;;;;15.18;3.55;;;4.70;99.90;;;;;;4957908;28;20077;-85
2022/03/19 02:48:40;;;;;;;20.27;2.85;;;4.80;99.90;;;;;;4958047;28;20062;-85
2022/03/19 02:51:08;;;;;;;16.52;3.22;;;4.60;99.90;;;;;;4940575;28;20038;-86
2022/03/19 02:53:34;;;;;;;17.67;3.80;;;4.90;99.90;;;;;;4967412;28;20042;-84
2022/03/19 02:55:59;;;;;;;15.60;3.63;;;4.50;99.90;;;;;;4957692;28;20047;-85
2022/03/19 02:58:25;;;;;;;10.40;2.42;;;4.70;99.90;;;;;;4943937;28;20050;-86
2022/03/19 03:00:51;;;;;;;13.10;3.00;;;4.50;99.90;;;;;;4928036;28;20184;-84
2022/03/19 03:03:17;;;;;;;12.63;3.25;;;4.90;99.90;;;;;;4942750;28;20133;-85
2022/03/19 03:05:43;;;;;;;16.85;2.97;;;4.50;99.90;;;;;;4949115;28;20129;-85
2022/03/19 03:08:09;;;;;;;13.95;2.80;;;5.20;99.90;;;;;;4953932;28;20042;-85
2022/03/19 03:10:35;;;;;;;19.15;3.08;;;5.00;99.90;;;;;;4969446;28;20041;-85
2022/03/19 03:13:02;;;;;;;13.00;2.85;;;4.50;99.90;;;;;;4974770;28;20042;-85
2022/03/19 03:15:28;;;;;;;14.95;4.15;;;4.60;99.90;;;;;;4955513;28;20049;-86
2022/03/19 03:17:54;;;;;;;18.80;3.95;;;4.50;99.90;;;;;;4957354;28;20034;-85
2022/03/19 03:20:20;;;;;;;14.00;2.90;;;4.60;99.90;;;;;;4945827;28;20066;-85
2022/03/19 03:22:46;;;;;;;15.57;3.00;;;4.50;99.90;;;;;;4936205;28;20061;-86
2022/03/19 03:25:12;;;;;;;18.88;4.28;;;4.50;99.90;;;;;;4969044;28;20053;-83
2022/03/19 03:27:38;;;;;;;14.57;3.97;;;5.10;99.90;;;;;;4965341;28;20049;-85
2022/03/19 03:30:04;;;;;;;15.32;3.88;;;5.20;99.90;;;;;;4937129;28;20038;-84
2022/03/19 03:32:30;;;;;;;13.93;3.45;;;4.50;99.90;;;;;;4958061;28;20041;-84
2022/03/19 03:34:55;;;;;;;16.15;3.45;;;4.70;99.90;;;;;;4953989;28;20038;-85
2022/03/19 03:37:21;;;;;;;17.23;3.17;;;4.90;99.90;;;;;;4946648;28;20492;-85
2022/03/19 03:39:47;;;;;;;19.98;3.55;;;4.60;99.90;;;;;;4947097;28;20451;-86
2022/03/19 03:42:13;;;;;;;15.82;3.70;;;5.10;99.90;;;;;;4936097;28;20046;-85
2022/03/19 03:44:41;;;;;;;15.45;3.30;;;5.20;99.90;;;;;;4940318;28;20481;-85
2022/03/19 03:47:07;;;;;;;11.88;3.28;;;5.10;99.90;;;;;;4955190;28;20076;-85
2022/03/19 03:49:33;;;;;;;17.58;3.63;;;4.30;99.90;;;;;;4943526;28;20042;-85
2022/03/19 03:51:59;;;;;;;14.38;3.40;;;4.90;99.90;;;;;;4948252;28;20031;-86
2022/03/19 03:54:24;;;;;;;17.42;4.50;;;4.80;99.90;;;;;;4970416;28;20038;-85
2022/03/19 03:56:50;;;;;;;13.70;2.88;;;4.90;99.90;;;;;;4963393;28;20125;-86
2022/03/19 03:59:16;;;;;;;15.52;3.70;;;4.30;99.90;;;;;;4945259;28;20066;-86
2022/03/19 04:01:41;;;;;;;20.27;4.13;;;4.30;99.90;;;;;;4945811;28;20092;-85
2022/03/19 04:04:08;;;;;;;22.08;3.78;;;4.70;99.90;;;;;;4945301;28;20096;-85
2022/03/19 04:06:33;;;;;;;19.48;3.63;;;4.20;99.90;;;;;;4941127;28;20463;-87
2022/03/19 04:08:59;;;;;;;15.88;3.88;;;4.30;99.90;;;;;;4953693;28;20041;-85
2022/03/19 04:11:25;;;;;;;13.88;3.95;;;4.70;99.90;;;;;;4935945;28;20039;-85
2022/03/19 04:13:50;;;;;;;13.43;3.92;;;4.60;99.90;;;;;;4942461;28;20042;-87
2022/03/19 04:16:16;;;;;;;25.02;4.40;;;5.00;99.90;;;;;;4949890;28;20626;-84
2022/03/19 04:18:44;;;;;;;12.63;4.05;;;4.20;99.90;;;;;;4933929;28;20531;-85
2022/03/19 04:21:09;;;;;;;16.58;4.32;;;4.50;99.90;;;;;;4946254;28;20050;-84
2022/03/19 04:23:35;;;;;;;15.57;3.92;;;4.20;99.90;;;;;;4942179;28;20047;-85
2022/03/19 04:26:02;;;;;;;16.58;4.63;;;5.00;99.90;;;;;;4966234;28;20107;-85
2022/03/19 04:28:27;;;;;;;19.52;4.70;;;4.40;99.90;;;;;;4957062;28;20042;-86
2022/03/19 04:30:53;;;;;;;13.80;3.90;;;5.00;99.90;;;;;;4948814;28;20050;-85
2022/03/19 04:33:22;;;;;;;22.90;5.47;;;4.70;99.90;;;;;;4938165;28;20030;-84
2022/03/19 04:38:32;;;;;;;22.42;4.72;;;4.90;99.90;;;;;;4956721;28;20088;-85
2022/03/19 04:40:59;;;;;;;11.55;4.03;;;4.30;99.90;;;;;;4958359;28;20121;-86
2022/03/19 04:43:25;;;;;;;19.48;5.03;;;4.20;99.90;;;;;;4956136;28;20034;-84
2022/03/19 04:45:51;;;;;;;22.10;5.30;;;4.10;99.90;;;;;;4951282;28;20050;-84
2022/03/19 04:48:16;;;;;;;21.00;4.97;;;4.40;99.90;;;;;;4954282;28;20124;-84
2022/03/19 04:50:46;;;;;;;11.05;3.70;;;4.00;99.90;;;;;;4932452;28;20093;-85
2022/03/19 04:53:13;;;;;;;16.75;4.63;;;4.50;99.90;;;;;;4950684;28;20037;-85
2022/03/19 04:55:39;;;;;;;14.23;3.70;;;4.10;99.90;;;;;;4939408;28;20046;-84
2022/03/19 04:58:06;;;;;;;26.70;5.25;;;4.10;99.90;;;;;;4957582;28;20495;-85
2022/03/19 05:00:32;;;;;;;17.40;4.53;;;4.10;99.90;;;;;;4949841;28;20038;-84
2022/03/19 05:02:58;;;;;;;20.73;5.30;;;4.60;99.90;;;;;;4952710;28;20038;-86
2022/03/19 05:05:24;;;;;;;25.45;5.75;;;4.50;99.90;;;;;;4945926;28;20034;-85
2022/03/19 05:07:52;;;;;;;20.77;4.93;;;4.40;99.90;;;;;;4959266;28;20046;-87
2022/03/19 05:13:03;;;;;;;18.75;5.65;;;4.00;99.90;;;;;;4931635;28;20568;-86
2022/03/19 05:15:28;;;;;;;13.70;4.70;;;4.00;99.90;;;;;;4934118;28;20089;-86
2022/03/19 05:17:54;;;;;;;16.40;5.45;;;3.90;99.90;;;;;;4936897;28;20070;-86
2022/03/19 05:20:20;;;;;;;14.85;5.05;;;4.30;99.90;;;;;;4940695;28;20038;-86
2022/03/19 05:22:45;;;;;;;18.27;5.60;;;3.90;99.90;;;;;;4948889;28;20049;-85
2022/03/19 05:25:11;;;;;;;14.70;6.53;;;3.90;99.90;;;;;;4938132;28;20045;-85
2022/03/19 05:27:37;;;;;;;25.00;6.70;;;3.90;99.90;;;;;;4947912;28;20030;-85
2022/03/19 05:30:04;;;;;;;30.92;7.70;;;3.90;99.90;;;;;;4950944;28;20117;-84
2022/03/19 05:32:30;;;;;;;17.98;4.97;;;3.90;99.90;;;;;;4944655;28;20711;-84
2022/03/19 05:34:56;;;;;;;16.88;5.78;;;4.70;99.90;;;;;;4944516;28;20126;-87
2022/03/19 05:37:22;;;;;;;26.10;6.50;;;3.90;99.90;;;;;;4956799;28;20089;-85
2022/03/19 05:39:48;;;;;;;19.80;6.13;;;3.90;99.90;;;;;;4948548;28;20038;-84
2022/03/19 05:42:14;;;;;;;24.67;6.25;;;3.90;99.90;;;;;;4961173;28;20480;-86
2022/03/19 05:44:40;;;;;;;19.95;5.97;;;3.90;99.90;;;;;;4952665;28;20508;-85
2022/03/19 05:47:06;;;;;;;23.00;7.80;;;4.30;99.90;;;;;;4945749;28;20039;-85
2022/03/19 05:49:32;;;;;;;18.98;6.30;;;3.90;99.90;;;;;;4957548;28;20122;-86
2022/03/19 05:51:58;;;;;;;17.42;6.72;;;3.90;99.90;;;;;;4936140;28;20034;-85
2022/03/19 05:54:25;;;;;;;21.25;6.47;;;4.50;99.90;;;;;;4947470;28;20035;-84
2022/03/19 05:56:51;;;;;;;17.90;6.63;;;3.90;99.90;;;;;;4933512;28;20394;-86
2022/03/19 05:59:19;;;;;;;19.42;5.95;;;3.90;99.90;;;;;;4942559;28;20085;-85
2022/03/19 06:01:45;;;;;;;22.38;6.45;;;3.90;99.90;;;;;;4937958;28;20034;-85
2022/03/19 06:04:11;;;;;;;19.33;6.10;;;3.90;99.90;;;;;;4928386;28;20053;-85
2022/03/19 06:06:37;;;;;;;18.88;7.20;;;4.20;99.90;;;;;;4964274;28;20839;-86
2022/03/19 06:09:03;;;;;;;17.13;6.97;;;3.90;99.90;;;;;;4955549;28;20416;-86
2022/03/19 06:11:29;;;;;;;21.05;6.45;;;4.50;99.90;;;;;;4968090;28;20049;-85
2022/03/19 06:13:54;;;;;;;21.15;6.50;;;4.50;99.90;;;;;;4931948;28;20117;-85
2022/03/19 06:16:20;;;;;;;24.48;8.23;;;4.40;99.90;;;;;;4921247;28;20955;-84
2022/03/19 06:18:49;;;;;;;18.77;7.65;;;4.00;99.90;;;;;;4966487;28;20059;-85
2022/03/19 06:21:19;;;;;;;17.13;7.18;;;4.60;99.90;;;;;;4952342;28;20038;-83
2022/03/19 06:23:45;;;;;;;16.40;7.40;;;4.10;99.90;;;;;;4958492;28;20038;-84
2022/03/19 06:26:11;;;;;;;24.33;7.43;;;4.80;99.90;;;;;;4966182;28;20101;-85
2022/03/19 06:28:37;;;;;;;22.88;7.03;;;4.10;99.90;;;;;;4935919;28;20065;-83
2022/03/19 06:31:03;;;;;;;18.92;7.40;;;4.20;99.90;;;;;;4943339;28;20043;-85
2022/03/19 06:33:29;;;;;;;16.58;7.53;;;4.80;99.90;;;;;;4919071;28;20089;-85
2022/03/19 06:38:39;;;;;;;;;;;4.90;99.90;;;;;;4955855;28;20058;-86
2022/03/19 06:41:05;;;;;;;18.65;6.65;;;4.50;99.90;;;;;;4955645;28;19925;-85
2022/03/19 06:43:31;;;;;;;14.85;6.53;;;4.40;99.90;;;;;;4951232;28;20043;-86
2022/03/19 06:46:00;;;;;;;19.73;7.57;;;5.10;99.90;;;;;;4963829;28;20027;-85
2022/03/19 06:48:26;;;;;;;22.63;8.27;;;5.10;99.90;;;;;;4936855;28;20149;-86
2022/03/19 06:50:54;;;;;;;17.60;7.25;;;4.60;99.90;;;;;;4936606;28;20030;-87
2022/03/19 06:53:20;;;;;;;17.30;6.93;;;4.70;99.90;;;;;;4972810;28;20038;-86
2022/03/19 06:55:46;;;;;;;19.20;6.72;;;4.80;99.90;;;;;;4944724;28;20041;-86
2022/03/19 06:58:12;;;;;;;16.42;7.20;;;5.10;99.90;;;;;;4952749;28;20109;-88
2022/03/19 07:00:39;;;;;;;26.20;8.10;;;5.60;99.90;;;;;;4949320;28;20049;-85
2022/03/19 07:03:05;;;;;;;20.15;7.40;;;5.60;99.90;;;;;;4950402;28;20061;-85
2022/03/19 07:05:31;;;;;;;17.75;7.13;;;5.10;99.90;;;;;;4946789;28;20043;-87
2022/03/19 07:07:58;;;;;;;17.75;8.10;;;5.30;99.90;;;;;;4953552;28;20044;-86
2022/03/19 07:10:24;;;;;;;23.02;8.10;;;6.00;99.90;;;;;;4955711;28;20042;-84
2022/03/19 07:12:53;;;;;;;17.63;6.68;;;5.40;99.90;;;;;;4959573;28;20037;-84
2022/03/19 07:15:21;;;;;;;15.75;7.00;;;6.20;99.90;;;;;;4958934;28;20057;-84
2022/03/19 07:17:48;;;;;;;21.30;7.65;;;5.60;99.90;;;;;;4974299;28;20072;-84
2022/03/19 07:20:14;;;;;;;17.42;7.20;;;6.30;99.90;;;;;;4953653;28;20057;-87
2022/03/19 07:23:00;;;;;;;17.67;6.95;;;6.30;99.90;;;;;;4969387;28;20376;-85
2022/03/19 07:25:30;;;;;;;16.52;7.05;;;6.00;99.90;;;;;;4950218;28;20061;-84
2022/03/19 07:27:58;;;;;;;17.45;6.78;;;6.00;99.90;;;;;;4943805;28;20037;-86
2022/03/19 07:30:24;;;;;;;16.02;6.80;;;6.10;99.90;;;;;;4959484;28;20038;-86
2022/03/19 07:32:50;;;;;;;17.02;6.43;;;6.20;99.90;;;;;;4941535;28;20615;-85
2022/03/19 07:35:16;;;;;;;16.95;6.57;;;6.30;99.90;;;;;;4956040;28;20412;-85
2022/03/19 07:37:43;;;;;;;21.42;6.90;;;6.50;99.90;;;;;;4951351;28;20082;-84
2022/03/19 07:40:11;;;;;;;14.95;5.45;;;6.60;99.90;;;;;;4955807;28;20046;-85
2022/03/19 07:42:37;;;;;;;17.80;5.53;;;6.70;99.90;;;;;;4954937;28;20045;-85
2022/03/19 07:45:04;;;;;;;17.67;5.75;;;6.80;99.90;;;;;;4950019;28;20102;-85
2022/03/19 07:47:30;;;;;;;16.73;6.70;;;6.90;99.90;;;;;;4953869;28;20038;-84
2022/03/19 07:49:56;;;;;;;20.90;6.75;;;7.20;99.90;;;;;;4958271;28;20054;-84
2022/03/19 07:52:23;;;;;;;18.50;7.82;;;7.50;99.90;;;;;;4953408;28;20309;-85
2022/03/19 07:54:48;;;;;;;17.40;6.65;;;7.30;99.90;;;;;;4944848;28;20580;-85
2022/03/19 07:57:14;;;;;;;15.80;7.68;;;7.40;99.90;;;;;;4945665;28;20137;-84
2022/03/19 07:59:40;;;;;;;17.42;5.65;;;7.50;99.90;;;;;;4919300;28;20226;-83
2022/03/19 08:02:06;;;;;;;16.05;6.72;;;7.60;99.90;;;;;;4938885;28;20053;-82
2022/03/19 08:04:32;;;;;;;18.17;6.78;;;7.60;99.90;;;;;;4958900;28;20117;-84
2022/03/19 08:06:58;;;;;;;19.52;6.35;;;8.10;99.90;;;;;;4950982;28;20381;-84
2022/03/19 08:09:24;;;;;;;13.82;6.65;;;7.70;99.90;;;;;;4956240;28;20044;-84
2022/03/19 08:11:53;;;;;;;16.83;5.93;;;7.80;99.90;;;;;;4946575;28;20698;-82
2022/03/19 08:14:19;;;;;;;16.80;5.88;;;8.30;99.90;;;;;;4961454;28;20451;-85
2022/03/19 08:16:46;;;;;;;23.17;7.00;;;8.10;99.90;;;;;;4961873;28;20124;-85
2022/03/19 08:19:13;;;;;;;22.88;6.68;;;8.10;99.90;;;;;;4965456;28;20078;-83
2022/03/19 08:21:40;;;;;;;18.10;5.82;;;8.20;99.90;;;;;;4968973;28;20045;-83
2022/03/19 08:24:07;;;;;;;15.90;5.60;;;8.50;99.90;;;;;;4947152;28;20047;-83
2022/03/19 08:26:33;;;;;;;15.27;5.25;;;8.40;99.90;;;;;;4916397;28;20133;-85
2022/03/19 08:28:59;;;;;;;13.77;5.38;;;8.50;99.60;;;;;;4955176;28;20088;-85
2022/03/19 08:31:25;;;;;;;16.45;5.32;;;8.60;98.50;;;;;;4955172;28;20146;-84
2022/03/19 08:33:52;;;;;;;13.52;4.68;;;8.50;98.90;;;;;;4971109;28;20500;-85
2022/03/19 08:36:18;;;;;;;15.05;5.82;;;9.00;98.90;;;;;;4954433;28;20047;-84
2022/03/19 08:41:28;;;;;;;16.10;5.75;;;8.80;98.50;;;;;;4960536;28;20051;-85
2022/03/19 08:43:54;;;;;;;15.93;5.20;;;9.10;98.70;;;;;;4945611;28;20044;-85
2022/03/19 08:46:20;;;;;;;15.15;4.90;;;9.10;98.10;;;;;;4948254;28;20121;-84
2022/03/19 08:48:45;;;;;;;13.85;4.78;;;9.20;97.80;;;;;;4931684;28;20042;-84
2022/03/19 08:51:53;;;;;;;14.98;4.72;;;9.30;97.90;;;;;;4956581;28;20039;-85
2022/03/19 08:54:00;;;;;;;12.80;4.20;;;9.50;96.60;;;;;;4934855;28;20053;-84
2022/03/19 08:56:25;;;;;;;12.80;3.80;;;9.70;96.60;;;;;;4937941;28;20050;-83
2022/03/19 08:58:51;;;;;;;16.25;4.47;;;9.60;96.50;;;;;;4946958;28;20105;-85
2022/03/19 09:01:17;;;;;;;14.63;4.03;;;9.50;95.30;;;;;;4945261;28;20058;-82
2022/03/19 09:03:43;;;;;;;15.95;5.53;;;9.60;94.70;;;;;;4951815;28;20152;-82
2022/03/19 09:06:14;;;;;;;12.20;3.85;;;9.70;94.40;;;;;;4949710;28;20050;-82
2022/03/19 09:08:41;;;;;;;17.60;4.60;;;9.70;94.40;;;;;;4948268;28;20059;-85
2022/03/19 09:11:07;;;;;;;14.75;3.90;;;9.90;94.80;;;;;;4942612;28;20038;-83
2022/03/19 09:13:33;;;;;;;12.13;3.42;;;9.90;93.90;;;;;;4962329;28;20121;-82
2022/03/19 09:15:59;;;;;;;11.80;4.05;;;10.00;93.90;;;;;;4980423;28;20096;-82
2022/03/19 09:18:26;;;;;;;11.95;3.53;;;10.10;93.30;;;;;;4969621;28;20040;-81
2022/03/19 09:20:52;;;;;;;16.52;3.95;;;10.20;92.60;;;;;;4969588;28;20054;-87
2022/03/19 09:23:18;;;;;;;14.90;3.60;;;10.60;91.20;;;;;;4988763;28;20073;-82
2022/03/19 09:25:43;;;;;;;11.50;3.13;;;10.30;91.50;;;;;;4978119;28;20066;-80
2022/03/19 09:28:09;;;;;;;15.82;4.10;;;10.20;88.40;;;;;;4942269;28;20506;-83
2022/03/19 09:30:35;;;;;;;13.90;3.17;;;10.70;90.80;;;;;;4974827;28;20049;-84
2022/03/19 09:33:01;;;;;;;7.50;2.60;;;10.50;89.90;;;;;;4948505;28;20038;-82
2022/03/19 09:35:27;;;;;;;19.90;3.70;;;10.40;87.70;;;;;;4950219;28;20042;-89
2022/03/19 09:37:53;;;;;;;10.00;3.55;;;10.40;84.60;;;;;;4957672;28;20493;-82
2022/03/19 09:40:19;;;;;;;13.00;3.38;;;10.70;84.50;;;;;;4955052;28;20049;-83
2022/03/19 09:42:49;;;;;;;11.48;3.05;;;10.50;83.90;;;;;;4971519;28;20112;-80
2022/03/19 09:45:18;;;;;;;11.65;3.40;;;10.50;87.10;;;;;;4960947;28;20121;-84
2022/03/19 09:47:51;;;;;;;10.02;3.10;;;10.70;84.70;;;;;;4952839;28;20451;-83
2022/03/19 09:50:17;;;;;;;9.07;2.53;;;10.90;83.90;;;;;;4958845;28;20035;-83
2022/03/19 09:52:44;;;;;;;9.93;2.65;;;10.80;79.70;;;;;;4998397;28;20046;-83
2022/03/19 09:55:14;;;;;;;12.00;3.58;;;10.70;78.30;;;;;;4979295;28;20106;-84
2022/03/19 09:57:40;;;;;;;13.73;3.72;;;10.90;79.70;;;;;;4960705;28;20042;-83
2022/03/19 10:00:07;;;;;;;12.25;3.72;;;11.00;82.40;;;;;;4939069;28;20050;-83
2022/03/19 10:02:55;;;;;;;11.80;3.33;;;11.20;81.80;;;;;;4955214;28;20435;-83
2022/03/19 10:11:00;;;;;;;9.23;2.67;;;11.70;77.80;;;;;;4972125;28;20137;-82
2022/03/19 10:13:26;;;;;;;8.75;2.22;;;11.50;74.40;;;;;;4951294;28;20106;-81
2022/03/19 10:15:53;;;;;;;10.93;2.55;;;12.30;77.50;;;;;;4958576;28;20046;-80
2022/03/19 10:18:27;;;;;;;9.63;2.75;;;11.90;77.00;;;;;;4950565;28;20050;-87
2022/03/19 10:20:53;;;;;;;9.27;2.38;;;12.00;74.70;;;;;;4959658;28;20046;-85
2022/03/19 10:23:33;;;;;;;9.32;2.55;;;11.90;72.40;;;;;;4981560;28;20058;-83
2022/03/19 10:25:59;;;;;;;10.38;2.90;;;11.90;72.00;;;;;;4965013;28;20053;-81
2022/03/19 10:28:34;;;;;;;8.15;2.55;;;12.00;72.20;;;;;;4960024;28;20140;-88
2022/03/19 10:31:00;;;;;;;7.40;2.30;;;12.00;69.40;;;;;;4974956;28;20047;-84
2022/03/19 10:33:28;;;;;;;6.30;2.80;;;12.10;72.10;;;;;;4980657;28;20066;-80
2022/03/19 10:36:08;;;;;;;8.32;2.65;;;12.30;72.10;;;;;;4980556;28;20045;-82
2022/03/19 10:38:45;;;;;;;9.27;2.50;;;12.50;69.30;;;;;;4979476;28;20042;-84
2022/03/19 10:41:18;;;;;;;13.50;3.35;;;12.50;71.40;;;;;;4945202;28;20389;-82
2022/03/19 10:43:45;;;;;;;10.43;2.92;;;12.70;72.50;;;;;;4978827;28;20049;-84
2022/03/19 10:46:11;;;;;;;9.05;2.60;;;12.80;67.60;;;;;;4952727;28;20225;-84
2022/03/19 10:48:40;;;;;;;11.43;3.03;;;13.00;67.90;;;;;;4961859;28;20271;-87
2022/03/19 10:51:08;;;;;;;10.35;3.20;;;13.00;69.80;;;;;;4945830;28;20077;-83
2022/03/19 10:53:34;;;;;;;7.32;2.33;;;13.10;71.30;;;;;;4966410;28;20043;-84
2022/03/19 10:56:01;;;;;;;8.65;3.08;;;13.10;68.30;;;;;;4960278;28;20516;-83
2022/03/19 10:58:27;;;;;;;7.82;2.60;;;13.10;68.00;;;;;;4947839;28;20046;-80
2022/03/19 11:00:54;;;;;;;6.05;2.70;;;13.10;68.50;;;;;;4968062;28;20240;-81
2022/03/19 11:03:24;;;;;;;9.00;2.75;;;12.90;66.40;;;;;;4957900;28;20042;-88
2022/03/19 11:05:57;;;;;;;10.98;3.20;;;13.00;67.70;;;;;;4959565;28;20322;-85
2022/03/19 11:08:24;;;;;;;6.38;2.63;;;13.10;67.80;;;;;;4967979;28;20038;-83
2022/03/19 11:10:53;;;;;;;7.68;2.92;;;13.10;68.40;;;;;;4972425;28;20066;-87
2022/03/19 11:13:28;;;;;;;7.47;2.55;;;13.00;67.10;;;;;;4970377;28;20042;-84
2022/03/19 11:15:59;;;;;;;9.93;2.92;;;13.10;65.40;;;;;;4950811;28;20275;-84
2022/03/19 11:18:26;;;;;;;8.82;2.72;;;13.20;66.60;;;;;;4941261;28;20105;-83
2022/03/19 11:20:53;;;;;;;7.45;2.20;;;13.30;64.40;;;;;;4957227;28;20038;-88
2022/03/19 11:23:53;;;;;;;9.93;3.35;;;13.30;64.70;;;;;;4959597;28;20054;-86
2022/03/19 11:26:26;;;;;;;11.38;3.70;;;13.40;63.30;;;;;;4965730;28;20132;-86
2022/03/19 11:28:52;;;;;;;9.63;3.00;;;13.50;64.20;;;;;;4958421;28;20176;-88
2022/03/19 11:31:30;;;;;;;9.48;2.78;;;13.60;66.60;;;;;;4971727;28;20073;-84
2022/03/19 11:33:59;;;;;;;7.00;2.70;;;13.70;63.60;;;;;;4946326;28;20038;-84
2022/03/19 11:36:25;;;;;;;7.20;2.67;;;13.70;65.50;;;;;;4941262;28;20286;-79
2022/03/19 11:38:53;;;;;;;6.57;2.55;;;13.80;66.50;;;;;;4966435;28;20064;-86
2022/03/19 11:41:27;;;;;;;8.73;2.92;;;13.90;65.20;;;;;;4981965;23;20125;-55
2022/03/19 11:44:24;;;;;;;8.20;2.85;;;14.00;65.70;;;;;;4974263;28;20385;-60
2022/03/19 11:47:06;;;;;;;7.53;2.40;;;14.30;65.70;;;;;;4969584;28;20042;-56
2022/03/19 11:49:54;;;;;;;7.43;2.13;;;14.40;62.30;;;;;;4968613;28;20034;-60
2022/03/19 11:52:26;;;;;;;14.55;3.08;;;14.40;63.90;;;;;;4971335;28;20266;-55
2022/03/19 11:55:12;;;;;;;7.05;2.88;;;14.60;64.30;;;;;;4976203;28;20042;-56
2022/03/19 11:57:55;;;;;;;6.78;2.95;;;14.80;64.50;;;;;;4974621;28;20060;-57
2022/03/19 12:00:27;;;;;;;5.47;2.10;;;14.80;63.20;;;;;;4950851;28;20046;-56
2022/03/19 12:03:12;;;;;;;7.22;1.88;;;14.70;60.90;;;;;;4967984;28;20475;-56
2022/03/19 12:05:49;;;;;;;5.55;1.92;;;14.80;60.60;;;;;;4970932;28;20082;-56
2022/03/19 12:08:20;;;;;;;4.10;1.92;;;14.60;55.20;;;;;;4945958;28;20042;-56
2022/03/19 12:10:57;;;;;;;7.60;3.03;;;14.40;55.00;;;;;;4964780;28;20042;-55
2022/03/19 12:13:26;;;;;;;5.97;2.08;;;14.30;56.60;;;;;;4962151;28;20129;-56
2022/03/19 12:15:53;;;;;;;8.15;2.78;;;14.20;56.80;;;;;;4972887;28;20046;-57
2022/03/19 12:18:38;;;;;;;10.30;3.08;;;14.20;57.30;;;;;;4961118;28;20215;-56
2022/03/19 12:21:10;;;;;;;8.30;2.75;;;14.30;56.10;;;;;;4953012;28;20042;-59
2022/03/19 12:23:39;;;;;;;5.25;1.90;;;14.40;58.00;;;;;;4976544;28;20054;-58
2022/03/19 12:26:06;;;;;;;10.13;1.95;;;14.50;59.50;;;;;;4965980;28;20042;-58
2022/03/19 12:28:32;;;;;;;7.93;2.30;;;14.70;59.30;;;;;;4968434;28;20220;-56
2022/03/19 12:31:11;;;;;;;5.88;2.28;;;14.90;59.30;;;;;;4956407;28;20381;-55
2022/03/19 12:33:38;;;;;;;6.78;2.10;;;14.70;57.70;;;;;;4971899;28;20384;-56
2022/03/19 12:36:12;;;;;;;5.93;2.42;;;14.80;58.10;;;;;;4972203;28;20120;-56
2022/03/19 12:38:38;;;;;;;6.75;2.10;;;14.70;56.90;;;;;;4971060;28;20046;-57
2022/03/19 12:43:48;;;;;;;5.07;1.60;;;14.90;58.00;;;;;;4972246;28;20191;-56
2022/03/19 12:46:23;;;;;;;8.30;1.92;;;14.70;56.30;;;;;;4980530;28;20464;-56
2022/03/19 12:48:48;;;;;;;3.65;1.80;;;14.80;56.80;;;;;;4977140;28;20038;-54
2022/03/19 12:51:25;;;;;;;5.00;1.83;;;14.90;57.50;;;;;;4971831;28;20049;-54
2022/03/19 12:53:51;;;;;;;4.95;1.45;;;15.00;56.10;;;;;;4964797;28;20488;-54
2022/03/19 12:56:19;;;;;;;8.30;3.22;;;14.70;55.70;;;;;;4978330;28;20453;-54
2022/03/19 12:58:48;;;;;;;6.80;2.22;;;14.60;55.80;;;;;;4969522;28;20051;-53
2022/03/19 13:01:15;;;;;;;6.57;2.35;;;14.60;57.60;;;;;;4970601;28;20460;-58
2022/03/19 13:03:41;;;;;;;4.78;1.60;;;14.60;58.30;;;;;;4965414;28;20046;-57
2022/03/19 13:06:08;;;;;;;7.13;2.00;;;14.70;56.50;;;;;;4957097;28;20093;-60
2022/03/19 13:08:50;;;;;;;6.82;2.22;;;14.70;58.10;;;;;;4975339;28;20042;-57
2022/03/19 13:11:17;;;;;;;6.40;2.15;;;14.80;60.30;;;;;;4949773;28;20038;-56